createdAt,value
2022-09-05T00:03:52.258Z,159.20
2022-09-05T00:11:42.487Z,166.18
2022-09-05T00:24:19.236Z,170.05
2022-09-05T00:26:50.218Z,178.27
2022-09-05T00:34:10.545Z,174.88
2022-09-05T00:41:12.856Z,191.93
2022-09-05T00:48:25.814Z,196.10
2022-09-05T00:55:48.035Z,204.77
2022-09-05T01:03:10.636Z,205.20
2022-09-05T01:10:40.192Z,194.93
2022-09-05T01:17:53.564Z,194.47
2022-09-05T01:25:32.805Z,200.65
2022-09-05T01:33:10.245Z,214.60
2022-09-05T01:40:34.540Z,216.98
2022-09-05T01:47:50.089Z,230.90
2022-09-05T01:55:22.525Z,206.43
2022-09-05T02:02:50.314Z,204.85
2022-09-05T02:09:52.430Z,232.18
2022-09-05T02:17:27.211Z,195.80
2022-09-05T02:24:44.967Z,196.23
2022-09-05T02:31:48.434Z,219.25
2022-09-05T02:42:38.328Z,268.90
2022-09-05T02:46:18.736Z,230.88
2022-09-05T02:57:36.306Z,237.05
2022-09-05T03:00:53.815Z,223.38
2022-09-05T03:08:11.508Z,204.93
2022-09-05T03:15:22.565Z,203.07
2022-09-05T03:22:28.833Z,201.20
2022-09-05T03:29:58.672Z,208.63
2022-09-05T03:44:36.041Z,211.90
2022-09-05T03:57:04.833Z,211.23
2022-09-05T03:59:27.070Z,207.75
2022-09-05T04:08:18.264Z,211.63
2022-09-05T04:14:20.481Z,216.23
2022-09-05T04:21:26.647Z,219.05
2022-09-05T04:28:28.162Z,247.73
2022-09-05T04:36:17.812Z,224.98
2022-09-05T04:43:29.705Z,222.85
2022-09-05T04:50:37.666Z,225.23
2022-09-05T04:58:02.765Z,216.55
2022-09-05T05:06:12.748Z,223.02
2022-09-05T05:17:57.398Z,228.93
2022-09-05T05:20:41.239Z,222.95
2022-09-05T05:28:21.237Z,206.45
2022-09-05T05:35:29.482Z,206.07
2022-09-05T05:42:31.130Z,219.30
2022-09-05T05:49:54.307Z,204.68
2022-09-05T05:56:58.887Z,223.75
2022-09-05T06:04:16.686Z,200.18
2022-09-05T06:14:59.036Z,211.45
2022-09-05T06:19:17.080Z,205.13
2022-09-05T06:26:49.200Z,211.35
2022-09-05T06:34:03.059Z,224.85
2022-09-05T06:41:20.381Z,208.85
2022-09-05T06:49:28.958Z,206.32
2022-09-05T06:56:32.783Z,210.80
2022-09-05T07:03:45.179Z,207.43
2022-09-05T07:11:15.600Z,236.10
2022-09-05T07:18:43.560Z,200.23
2022-09-05T07:25:48.186Z,195.68
2022-09-05T07:32:52.315Z,194.13
2022-09-05T07:39:58.466Z,190.32
2022-09-05T07:47:10.426Z,185.05
2022-09-05T07:57:08.357Z,187.50
2022-09-05T08:01:46.580Z,193.45
2022-09-05T08:09:18.107Z,192.10
2022-09-05T08:16:15.494Z,190.40
2022-09-05T08:23:46.684Z,189.35
2022-09-05T08:31:00.024Z,189.60
2022-09-05T08:38:01.779Z,189.30
2022-09-05T08:46:39.203Z,181.43
2022-09-05T08:52:54.672Z,209.02
2022-09-05T09:00:18.904Z,220.55
2022-09-05T09:07:51.478Z,211.85
2022-09-05T09:14:59.799Z,190.25
2022-09-05T09:22:34.841Z,206.13
2022-09-05T09:29:40.005Z,182.43
2022-09-05T09:37:03.304Z,212.18
2022-09-05T09:44:23.299Z,205.90
2022-09-05T09:51:31.431Z,178.00
2022-09-05T09:58:53.214Z,160.95
2022-09-05T10:10:44.211Z,150.57
2022-09-05T10:13:55.319Z,155.95
2022-09-05T10:21:24.471Z,159.95
2022-09-05T10:28:39.195Z,163.85
2022-09-05T10:35:42.558Z,160.27
2022-09-05T10:43:00.731Z,165.65
2022-09-05T10:50:06.334Z,172.52
2022-09-05T10:57:35.585Z,169.98
2022-09-05T11:05:04.730Z,140.90
2022-09-05T11:12:25.959Z,133.32
2022-09-05T11:20:02.512Z,138.88
2022-09-05T11:27:24.439Z,130.88
2022-09-05T11:40:10.956Z,128.75
2022-09-05T11:42:39.296Z,130.90
2022-09-05T11:50:02.461Z,149.00
2022-09-05T11:57:34.071Z,146.77
2022-09-05T12:05:48.818Z,138.80
2022-09-05T12:12:41.739Z,111.03
2022-09-05T12:19:56.807Z,72.78
2022-09-05T12:27:38.660Z,83.70
2022-09-05T12:36:12.957Z,77.35
2022-09-05T12:42:30.423Z,59.83
2022-09-05T12:49:52.225Z,49.47
2022-09-05T12:59:50.917Z,41.85
2022-09-05T13:04:46.437Z,50.78
2022-09-05T13:14:49.267Z,105.63
2022-09-05T13:19:37.775Z,112.35
2022-09-05T13:26:43.091Z,121.88
2022-09-05T13:37:59.736Z,108.93
2022-09-05T13:41:27.200Z,61.45
2022-09-05T13:56:23.751Z,68.93
2022-09-05T14:10:55.362Z,81.57
2022-09-05T14:18:26.714Z,56.60
2022-09-05T14:25:29.255Z,39.13
2022-09-05T14:37:36.273Z,46.08
2022-09-05T14:41:04.029Z,33.17
2022-09-05T14:48:18.391Z,22.15
2022-09-05T14:55:20.953Z,28.17
2022-09-05T15:02:51.985Z,28.17
2022-09-05T15:12:19.690Z,22.08
2022-09-05T15:17:50.271Z,52.28
2022-09-05T15:25:18.148Z,46.70
2022-09-05T15:32:24.769Z,37.47
2022-09-05T15:39:28.224Z,33.15
2022-09-05T15:46:46.619Z,49.40
2022-09-05T15:53:48.270Z,58.63
2022-09-05T16:00:51.913Z,75.97
2022-09-05T16:10:40.246Z,78.68
2022-09-05T16:22:01.248Z,61.83
2022-09-05T16:23:39.343Z,63.05
2022-09-05T16:30:39.242Z,74.13
2022-09-05T16:37:50.335Z,66.03
2022-09-05T16:45:17.186Z,58.20
2022-09-05T16:52:18.781Z,59.47
2022-09-05T16:59:22.337Z,49.92
2022-09-05T17:06:26.038Z,55.60
2022-09-05T17:13:31.206Z,49.65
2022-09-05T17:20:35.647Z,55.65
2022-09-05T17:29:36.091Z,63.50
2022-09-05T17:35:16.616Z,61.28
2022-09-05T17:49:40.379Z,86.30
2022-09-05T17:56:43.197Z,89.75
2022-09-05T18:03:45.833Z,95.15
2022-09-05T18:11:02.044Z,97.30
2022-09-05T18:18:35.431Z,90.55
2022-09-05T18:25:53.639Z,87.78
2022-09-05T18:33:55.883Z,83.88
2022-09-05T18:40:57.747Z,88.72
2022-09-05T18:48:00.394Z,91.05
2022-09-05T18:55:34.035Z,91.57
2022-09-05T19:02:51.248Z,98.53
2022-09-05T19:10:35.024Z,95.13
2022-09-05T19:17:45.321Z,93.68
2022-09-05T19:24:48.807Z,93.13
2022-09-05T19:37:13.244Z,94.30
2022-09-05T19:42:54.228Z,100.18
2022-09-05T19:47:35.045Z,96.88
2022-09-05T19:54:04.852Z,101.60
2022-09-05T20:01:08.361Z,104.13
2022-09-05T20:08:29.467Z,100.00
2022-09-05T20:15:36.258Z,106.65
2022-09-05T20:22:49.265Z,108.40
2022-09-05T20:29:55.904Z,108.00
2022-09-05T20:43:26.513Z,115.25
2022-09-05T20:44:41.241Z,114.53
2022-09-05T20:54:14.522Z,112.55
2022-09-05T20:59:12.597Z,111.15
2022-09-05T21:06:25.651Z,109.15
2022-09-05T21:13:36.842Z,110.22
2022-09-05T21:21:00.884Z,114.28
2022-09-05T21:28:06.976Z,109.00
2022-09-05T21:35:33.516Z,110.68
2022-09-05T21:47:27.468Z,115.70
2022-09-05T21:49:55.914Z,119.03
2022-09-05T21:59:28.694Z,117.88
2022-09-05T22:04:25.337Z,112.85
2022-09-05T22:11:27.021Z,110.72
2022-09-05T22:18:29.116Z,112.80
2022-09-05T22:25:32.130Z,109.75
2022-09-05T22:32:35.176Z,114.22
2022-09-05T22:39:38.126Z,115.13
2022-09-05T22:46:39.973Z,112.85
2022-09-05T22:53:41.621Z,121.20
2022-09-05T23:00:44.733Z,119.95
2022-09-05T23:07:46.681Z,131.27
2022-09-05T23:14:48.274Z,130.73
2022-09-05T23:21:49.917Z,137.75
2022-09-05T23:28:51.523Z,139.02
2022-09-05T23:35:53.137Z,138.77
2022-09-05T23:42:55.788Z,136.25
2022-09-05T23:49:57.421Z,133.65
2022-09-05T23:56:59.029Z,132.32
